Time;durP1;ratioP1;P1;durP2;ratioP2;P2;SDS_P1;SDS_P2;PMS_P1;PMS_P2;Temp;Humidity;BMP_temperature;BMP_pressure;BME280_temperature;BME280_humidity;BME280_pressure;Samples;Min_cycle;Max_cycle;Signal;HPM_P1;HPM_P2
2021/07/08 00:00:40;;;;;;;1.52;0.60;;;17.00;99.90;;;;;;10392114;28;20377;-61
2021/07/08 00:05:43;;;;;;;8.13;1.95;;;16.90;99.90;;;;;;10393589;28;20049;-61
2021/07/08 00:10:47;;;;;;;4.68;1.45;;;16.80;99.90;;;;;;10388954;28;20065;-61
2021/07/08 00:15:50;;;;;;;3.17;1.27;;;16.70;99.90;;;;;;10392192;28;20049;-61
2021/07/08 00:20:52;;;;;;;1.02;0.60;;;16.80;99.90;;;;;;10391585;28;20057;-61
2021/07/08 00:25:55;;;;;;;3.63;0.80;;;16.80;99.90;;;;;;10391183;28;20389;-61
2021/07/08 00:30:57;;;;;;;5.85;1.35;;;16.80;99.90;;;;;;10392708;28;20045;-61
2021/07/08 00:35:59;;;;;;;5.22;1.63;;;16.70;99.90;;;;;;10392839;28;20045;-62
2021/07/08 00:41:01;;;;;;;2.40;0.80;;;16.50;99.90;;;;;;10389972;28;20077;-61
2021/07/08 00:46:04;;;;;;;2.85;0.85;;;16.60;99.90;;;;;;10390234;28;20115;-61
2021/07/08 00:51:06;;;;;;;6.53;1.23;;;16.60;99.90;;;;;;10389368;28;20055;-61
2021/07/08 00:56:09;;;;;;;4.18;0.70;;;16.40;99.90;;;;;;10390162;28;20658;-61
2021/07/08 01:01:10;;;;;;;7.88;0.82;;;16.30;99.90;;;;;;10388234;28;20037;-61
2021/07/08 01:06:13;;;;;;;7.47;1.42;;;16.40;99.90;;;;;;10387727;28;20053;-61
2021/07/08 01:11:15;;;;;;;4.85;1.08;;;16.40;99.90;;;;;;10387535;28;20447;-61
2021/07/08 01:16:16;;;;;;;3.90;0.93;;;16.10;99.90;;;;;;10404564;28;20045;-61
2021/07/08 01:21:29;;;;;;;8.73;1.10;;;16.20;99.90;;;;;;10388669;28;20072;-61
2021/07/08 01:26:31;;;;;;;6.25;0.98;;;16.30;99.90;;;;;;10386768;28;20065;-61
2021/07/08 01:31:33;;;;;;;3.20;0.98;;;16.20;99.90;;;;;;10389797;28;20504;-61
2021/07/08 01:36:35;;;;;;;5.13;1.02;;;16.10;99.90;;;;;;10389229;28;20054;-61
2021/07/08 01:41:37;;;;;;;5.47;1.25;;;16.10;99.90;;;;;;10385063;28;20582;-61
2021/07/08 01:46:39;;;;;;;6.15;1.10;;;16.10;99.90;;;;;;10390453;28;20480;-61
2021/07/08 01:51:42;;;;;;;1.45;0.73;;;16.00;99.90;;;;;;10389160;28;20046;-62
2021/07/08 01:56:46;;;;;;;4.68;1.15;;;16.00;99.90;;;;;;10387233;28;20546;-61
2021/07/08 02:01:48;;;;;;;6.30;1.20;;;15.90;99.90;;;;;;10385092;28;20076;-61
2021/07/08 02:06:50;;;;;;;5.68;1.05;;;16.00;99.90;;;;;;10382976;28;20826;-61
2021/07/08 02:11:52;;;;;;;5.85;1.13;;;16.00;99.90;;;;;;10385453;28;20122;-61
2021/07/08 02:16:55;;;;;;;6.25;1.00;;;16.00;99.90;;;;;;10385804;28;20061;-61
2021/07/08 02:21:57;;;;;;;7.32;1.35;;;16.00;99.90;;;;;;10387159;28;20041;-61
2021/07/08 02:26:58;;;;;;;3.42;1.30;;;16.00;99.90;;;;;;10387394;28;20049;-62
2021/07/08 02:32:00;;;;;;;5.13;1.42;;;16.10;99.90;;;;;;10387275;28;20053;-61
2021/07/08 02:37:04;;;;;;;6.57;0.93;;;16.10;99.90;;;;;;10385600;28;20680;-61
2021/07/08 02:42:06;;;;;;;4.65;1.40;;;16.00;99.90;;;;;;10387150;28;20431;-61
2021/07/08 02:47:08;;;;;;;3.25;1.23;;;16.10;99.90;;;;;;10388520;28;20107;-61
2021/07/08 02:52:10;;;;;;;4.50;1.15;;;16.10;99.90;;;;;;10382433;28;20049;-61
2021/07/08 02:57:11;;;;;;;4.00;1.00;;;16.10;99.90;;;;;;10387778;28;20080;-61
2021/07/08 03:02:13;;;;;;;5.00;1.50;;;16.10;99.90;;;;;;10386278;28;20053;-61
2021/07/08 03:07:16;;;;;;;1.95;0.82;;;16.10;99.90;;;;;;10389830;28;20346;-61
2021/07/08 03:12:17;;;;;;;3.95;1.25;;;16.20;99.90;;;;;;10393840;28;20045;-63
2021/07/08 03:17:19;;;;;;;2.40;1.10;;;16.30;99.90;;;;;;10394683;28;20076;-62
2021/07/08 03:22:21;;;;;;;6.47;1.42;;;16.30;99.90;;;;;;10393287;28;20053;-60
2021/07/08 03:27:22;;;;;;;4.35;1.45;;;16.40;99.90;;;;;;10392060;28;20046;-60
2021/07/08 03:32:24;;;;;;;5.93;1.63;;;16.40;99.90;;;;;;10395131;28;20577;-59
2021/07/08 03:37:26;;;;;;;3.17;0.90;;;16.40;99.90;;;;;;10389668;28;20054;-60
2021/07/08 03:42:28;;;;;;;4.43;0.90;;;16.40;99.90;;;;;;10392343;28;20481;-59
2021/07/08 03:47:29;;;;;;;8.77;1.35;;;16.50;99.90;;;;;;10394368;28;20080;-60
2021/07/08 03:52:31;;;;;;;4.47;1.30;;;16.50;99.90;;;;;;10393397;28;20045;-60
2021/07/08 03:57:33;;;;;;;5.20;1.55;;;16.60;99.90;;;;;;10392662;28;20500;-62
2021/07/08 04:02:35;;;;;;;7.03;1.30;;;16.50;99.90;;;;;;10390300;28;20092;-60
2021/07/08 04:07:37;;;;;;;3.25;1.17;;;16.40;99.90;;;;;;10393355;28;20537;-60
2021/07/08 04:12:39;;;;;;;3.47;1.15;;;16.30;99.90;;;;;;10391322;28;20053;-61
2021/07/08 04:17:41;;;;;;;3.10;1.10;;;16.20;99.90;;;;;;10390093;28;20049;-59
2021/07/08 04:22:44;;;;;;;3.47;1.17;;;16.20;99.90;;;;;;10390385;28;20053;-59
2021/07/08 04:27:47;;;;;;;6.32;0.90;;;16.40;99.90;;;;;;10388433;28;20068;-60
2021/07/08 04:32:50;;;;;;;2.83;1.27;;;16.50;99.90;;;;;;10390171;28;20447;-59
2021/07/08 04:37:53;;;;;;;8.55;1.33;;;16.50;99.90;;;;;;10391241;28;20614;-61
2021/07/08 04:42:56;;;;;;;5.68;1.48;;;16.40;99.90;;;;;;10385694;28;20045;-59
2021/07/08 04:47:58;;;;;;;4.40;1.33;;;16.30;99.90;;;;;;10390207;28;20381;-60
2021/07/08 04:53:00;;;;;;;2.42;1.02;;;16.40;99.90;;;;;;10391119;28;20057;-59
2021/07/08 04:58:05;;;;;;;2.55;1.30;;;16.60;99.90;;;;;;10387621;28;20065;-61
2021/07/08 05:03:08;;;;;;;3.40;1.27;;;16.70;99.90;;;;;;10389495;28;20692;-60
2021/07/08 05:08:10;;;;;;;6.35;1.33;;;16.70;99.90;;;;;;10390940;28;20099;-59
2021/07/08 05:13:12;;;;;;;5.78;1.08;;;16.90;99.90;;;;;;10387178;28;20139;-59
2021/07/08 05:18:14;;;;;;;6.03;1.08;;;17.10;99.90;;;;;;10389075;28;20388;-59
2021/07/08 05:23:18;;;;;;;5.57;1.15;;;17.20;99.90;;;;;;10384141;28;20156;-59
2021/07/08 05:28:20;;;;;;;5.05;0.90;;;17.30;99.90;;;;;;10388761;28;20057;-59
2021/07/08 05:33:21;;;;;;;7.38;1.20;;;17.30;99.90;;;;;;10385751;28;20104;-59
2021/07/08 05:38:24;;;;;;;6.55;1.08;;;17.30;99.90;;;;;;10383804;28;20073;-58
2021/07/08 05:43:26;;;;;;;4.07;0.95;;;17.30;99.90;;;;;;10386257;28;20076;-59
2021/07/08 05:48:27;;;;;;;6.78;1.48;;;17.40;99.90;;;;;;10385155;28;20587;-59
2021/07/08 05:53:29;;;;;;;2.72;1.20;;;17.40;99.90;;;;;;10385395;28;20049;-59
2021/07/08 05:58:31;;;;;;;13.18;2.90;;;17.50;99.90;;;;;;10385390;28;20046;-60
2021/07/08 06:03:33;;;;;;;4.70;1.08;;;17.70;99.90;;;;;;10386101;28;20546;-59
2021/07/08 06:08:34;;;;;;;5.57;1.23;;;17.80;99.90;;;;;;10389231;28;20131;-60
2021/07/08 06:13:37;;;;;;;4.57;0.98;;;18.00;99.90;;;;;;10389058;28;20053;-60
2021/07/08 06:18:39;;;;;;;4.18;1.08;;;18.10;99.90;;;;;;10388244;28;20052;-60
2021/07/08 06:23:41;;;;;;;3.08;1.00;;;18.20;99.90;;;;;;10385583;28;20103;-60
2021/07/08 06:28:42;;;;;;;6.18;0.70;;;18.40;99.90;;;;;;10365721;28;20107;-60
2021/07/08 06:33:44;;;;;;;11.32;1.25;;;18.50;99.90;;;;;;10386473;28;20045;-60
2021/07/08 06:38:46;;;;;;;3.35;0.75;;;18.70;99.90;;;;;;10384989;28;20045;-61
2021/07/08 06:43:47;;;;;;;8.40;1.10;;;18.90;99.90;;;;;;10394786;28;20065;-61
2021/07/08 06:48:49;;;;;;;3.00;0.88;;;19.00;99.90;;;;;;10390201;28;20124;-61
2021/07/08 06:53:51;;;;;;;2.65;0.95;;;19.00;99.90;;;;;;10393811;28;20056;-61
2021/07/08 06:58:53;;;;;;;1.23;0.70;;;19.10;99.90;;;;;;10393943;28;20526;-61
2021/07/08 07:03:55;;;;;;;5.65;0.80;;;19.40;99.90;;;;;;10390374;28;20057;-61
2021/07/08 07:08:56;;;;;;;1.67;0.68;;;19.70;99.90;;;;;;10395584;28;20624;-60
2021/07/08 07:13:58;;;;;;;2.67;0.60;;;20.00;99.90;;;;;;10392760;28;20053;-61
2021/07/08 07:19:00;;;;;;;1.45;0.52;;;20.20;99.90;;;;;;10392033;28;20083;-62
2021/07/08 07:24:03;;;;;;;3.20;0.73;;;20.30;99.90;;;;;;10393358;28;20084;-61
2021/07/08 07:29:04;;;;;;;3.20;0.50;;;20.40;99.90;;;;;;10395040;28;20050;-61
2021/07/08 07:34:07;;;;;;;2.80;1.33;;;20.50;99.90;;;;;;10391110;28;20114;-61
2021/07/08 07:39:09;;;;;;;2.17;0.50;;;20.70;99.90;;;;;;10392690;28;20111;-61
2021/07/08 07:44:11;;;;;;;3.03;0.65;;;20.90;99.90;;;;;;10394376;28;20041;-61
2021/07/08 07:49:13;;;;;;;6.57;1.10;;;21.00;99.90;;;;;;10392433;28;20123;-62
2021/07/08 07:54:15;;;;;;;4.20;0.52;;;21.10;99.90;;;;;;10392036;28;20053;-60
2021/07/08 07:59:17;;;;;;;3.33;0.50;;;21.30;99.90;;;;;;10390026;28;20045;-61
2021/07/08 08:04:19;;;;;;;1.38;0.50;;;21.20;99.90;;;;;;10392689;28;20158;-61
2021/07/08 08:09:21;;;;;;;5.55;0.50;;;21.20;99.90;;;;;;10390707;28;20054;-61
2021/07/08 08:14:23;;;;;;;1.13;0.50;;;21.30;99.90;;;;;;10392171;28;20122;-61
2021/07/08 08:19:24;;;;;;;2.42;0.70;;;21.20;99.90;;;;;;10394325;28;20096;-61
2021/07/08 08:24:26;;;;;;;2.13;0.60;;;21.30;99.90;;;;;;10391629;28;20037;-62
2021/07/08 08:29:28;;;;;;;1.73;0.52;;;21.30;99.90;;;;;;10394947;28;20073;-62
2021/07/08 08:34:29;;;;;;;5.45;0.47;;;21.20;99.90;;;;;;10392494;28;20532;-62
2021/07/08 08:39:32;;;;;;;2.55;0.50;;;21.30;99.90;;;;;;10396439;28;20388;-61
2021/07/08 08:44:34;;;;;;;1.30;0.50;;;21.20;99.90;;;;;;10403703;28;20120;-61
2021/07/08 08:49:40;;;;;;;3.00;0.30;;;21.30;99.90;;;;;;10393480;28;20049;-61
2021/07/08 08:54:43;;;;;;;1.35;0.30;;;21.70;99.90;;;;;;10391511;28;20107;-62
2021/07/08 08:59:44;;;;;;;1.95;0.30;;;21.90;99.90;;;;;;10403096;28;20158;-61
2021/07/08 09:04:47;;;;;;;0.38;0.30;;;21.90;99.90;;;;;;10391596;28;20480;-61
2021/07/08 09:09:56;;;;;;;4.60;0.50;;;22.50;99.90;;;;;;10389137;28;20076;-61
2021/07/08 09:15:16;;;;;;;1.75;0.85;;;22.80;99.90;;;;;;10393660;28;20053;-62
2021/07/08 09:20:22;;;;;;;1.92;0.50;;;22.80;99.90;;;;;;10388751;28;20057;-61
2021/07/08 09:25:28;;;;;;;0.50;0.30;;;22.70;99.90;;;;;;10390061;28;20053;-61
2021/07/08 09:30:30;;;;;;;0.30;0.30;;;23.00;99.90;;;;;;10388832;28;20100;-61
2021/07/08 09:35:37;;;;;;;4.22;0.40;;;23.50;99.90;;;;;;10391424;28;21113;-61
2021/07/08 09:40:40;;;;;;;2.60;0.40;;;23.50;99.90;;;;;;10389622;28;20054;-61
2021/07/08 09:45:46;;;;;;;0.55;0.40;;;23.80;99.90;;;;;;10394179;28;20049;-62
2021/07/08 09:50:48;;;;;;;1.92;0.40;;;23.80;99.90;;;;;;10386144;28;20060;-61
2021/07/08 10:01:14;;;;;;;1.88;0.28;;;24.60;98.70;;;;;;10389483;28;20049;-61
2021/07/08 10:06:17;;;;;;;1.58;0.30;;;24.30;99.40;;;;;;10388405;28;20053;-61
2021/07/08 10:11:20;;;;;;;2.05;0.32;;;24.70;98.80;;;;;;10387187;28;20049;-60
2021/07/08 10:16:22;;;;;;;3.03;0.30;;;24.80;98.90;;;;;;10388755;28;20049;-60
2021/07/08 10:21:24;;;;;;;0.73;0.30;;;25.10;98.10;;;;;;10389397;28;20073;-60
2021/07/08 10:26:26;;;;;;;0.65;0.22;;;24.10;96.60;;;;;;10387517;28;20844;-60
2021/07/08 10:31:28;;;;;;;0.43;0.20;;;24.10;98.10;;;;;;10384908;28;20049;-60
2021/07/08 10:36:31;;;;;;;0.30;0.22;;;24.60;98.60;;;;;;10387514;28;20125;-60
2021/07/08 10:41:35;;;;;;;1.35;0.20;;;25.10;94.80;;;;;;10386871;28;20037;-61
2021/07/08 10:46:38;;;;;;;1.08;0.20;;;24.90;94.40;;;;;;10387294;28;20115;-61
2021/07/08 10:51:44;;;;;;;1.35;0.20;;;25.50;96.60;;;;;;10388344;28;20535;-61
2021/07/08 10:56:50;;;;;;;1.33;0.20;;;25.60;95.50;;;;;;10388067;28;20485;-62
2021/07/08 11:01:54;;;;;;;1.73;0.30;;;25.30;94.20;;;;;;10388973;28;20049;-61
2021/07/08 11:07:15;;;;;;;0.25;0.15;;;25.90;93.60;;;;;;10391761;28;20049;-61
2021/07/08 11:12:28;;;;;;;0.32;0.17;;;25.90;91.80;;;;;;10400279;28;20077;-62
2021/07/08 11:17:41;;;;;;;5.72;1.48;;;26.50;90.40;;;;;;10350110;28;20072;-62
2021/07/08 11:22:44;;;;;;;1.95;0.17;;;26.50;89.60;;;;;;10386604;28;20073;-61
2021/07/08 11:27:46;;;;;;;0.50;0.20;;;26.40;87.80;;;;;;10373356;28;20111;-61
2021/07/08 11:33:02;;;;;;;2.30;0.30;;;26.80;89.10;;;;;;10396101;28;20053;-60
2021/07/08 11:38:05;;;;;;;0.95;0.10;;;26.70;87.40;;;;;;10397169;28;20045;-61
2021/07/08 11:43:19;;;;;;;0.32;0.20;;;26.70;85.80;;;;;;10390895;28;22696;-62
2021/07/08 11:48:29;;;;;;;0.13;0.13;;;26.90;84.20;;;;;;10397401;28;20057;-60
2021/07/08 11:53:31;;;;;;;1.75;0.13;;;27.00;85.00;;;;;;10398799;28;20045;-60
2021/07/08 11:58:34;;;;;;;1.10;0.10;;;26.60;84.50;;;;;;10400384;28;20050;-60
2021/07/08 12:03:41;;;;;;;2.17;0.30;;;26.80;84.40;;;;;;10394528;28;20050;-62
2021/07/08 12:08:46;;;;;;;2.00;0.20;;;26.70;83.70;;;;;;10396441;28;20083;-63
2021/07/08 12:13:51;;;;;;;;;;;26.60;82.10;;;;;;10395158;28;20400;-62
2021/07/08 12:18:53;;;;;;;0.60;0.20;;;26.40;83.20;;;;;;10393898;28;20003;-63
2021/07/08 12:24:00;;;;;;;1.08;0.13;;;26.20;79.70;;;;;;10394689;28;20111;-63
2021/07/08 12:29:16;;;;;;;2.10;0.45;;;26.10;81.00;;;;;;10391938;28;20092;-62
2021/07/08 12:34:19;;;;;;;4.20;0.30;;;25.00;81.10;;;;;;10392162;28;20053;-63
2021/07/08 12:39:27;;;;;;;2.28;0.30;;;24.70;84.20;;;;;;10388284;28;20084;-62
2021/07/08 12:44:29;;;;;;;1.88;0.57;;;25.30;81.50;;;;;;10396695;28;20052;-64
2021/07/08 12:49:31;;;;;;;1.65;0.30;;;25.30;82.50;;;;;;10394804;28;20057;-62
2021/07/08 12:54:33;;;;;;;1.40;0.30;;;25.50;86.20;;;;;;10392100;28;20045;-62
2021/07/08 12:59:39;;;;;;;1.52;0.30;;;26.00;85.30;;;;;;10394133;28;20057;-63
2021/07/08 13:04:41;;;;;;;0.75;0.30;;;25.90;82.40;;;;;;10408362;28;20081;-62
2021/07/08 13:09:59;;;;;;;0.52;0.20;;;26.10;84.00;;;;;;10399585;28;20048;-62
2021/07/08 13:15:01;;;;;;;1.65;0.35;;;25.20;81.20;;;;;;10393749;28;20049;-62
2021/07/08 13:20:10;;;;;;;1.08;0.30;;;25.20;82.60;;;;;;10390606;28;20040;-61
2021/07/08 13:25:15;;;;;;;1.10;0.30;;;24.70;86.00;;;;;;10388118;28;20366;-62
2021/07/08 13:30:35;;;;;;;0.80;0.40;;;25.10;87.50;;;;;;10389621;28;20038;-62
2021/07/08 13:35:57;;;;;;;4.07;0.50;;;25.10;87.00;;;;;;10341593;28;20286;-63
2021/07/08 13:41:07;;;;;;;0.80;0.43;;;24.40;90.60;;;;;;10389513;28;20052;-62
2021/07/08 13:46:12;;;;;;;2.10;0.50;;;24.10;92.30;;;;;;10383574;28;20362;-60
2021/07/08 13:51:14;;;;;;;2.72;0.55;;;23.80;94.50;;;;;;10395100;28;20503;-60
2021/07/08 13:56:19;;;;;;;1.73;0.40;;;23.90;94.00;;;;;;10388470;28;20063;-60
2021/07/08 14:01:21;;;;;;;2.50;0.60;;;23.60;94.90;;;;;;10384804;28;20423;-60
2021/07/08 14:06:25;;;;;;;2.45;0.40;;;23.00;96.20;;;;;;10390591;28;20064;-58
2021/07/08 14:11:28;;;;;;;3.67;0.73;;;22.80;97.80;;;;;;10382446;28;20107;-61
2021/07/08 14:16:31;;;;;;;2.63;0.77;;;22.60;99.90;;;;;;10385544;28;20049;-61
2021/07/08 14:21:33;;;;;;;0.90;0.75;;;22.40;99.90;;;;;;10387266;28;20055;-60
2021/07/08 14:26:35;;;;;;;3.08;0.70;;;22.60;99.90;;;;;;10384380;28;20049;-60
2021/07/08 14:31:37;;;;;;;5.47;1.00;;;22.40;99.90;;;;;;10372546;28;20495;-59
2021/07/08 14:36:39;;;;;;;15.15;1.90;;;21.40;99.90;;;;;;10372455;28;20108;-59
2021/07/08 14:41:44;;;;;;;4.90;0.85;;;20.70;99.90;;;;;;10358124;28;20051;-60
2021/07/08 14:46:57;;;;;;;2.80;1.30;;;19.50;99.90;;;;;;10379653;28;20144;-61
2021/07/08 14:51:59;;;;;;;2.05;0.50;;;19.30;99.90;;;;;;10384775;28;20076;-61
2021/07/08 14:57:00;;;;;;;0.93;0.20;;;18.50;99.90;;;;;;10354578;28;20402;-60
2021/07/08 15:02:02;;;;;;;1.08;0.20;;;17.20;99.90;;;;;;10383605;28;20077;-60
2021/07/08 15:07:05;;;;;;;3.95;0.30;;;17.00;99.90;;;;;;10389518;28;20068;-61
2021/07/08 15:12:07;;;;;;;2.45;0.43;;;17.00;99.90;;;;;;10390360;28;20045;-61
2021/07/08 15:17:10;;;;;;;3.60;0.60;;;17.10;99.90;;;;;;10390450;28;24025;-61
2021/07/08 15:22:12;;;;;;;1.10;0.60;;;17.10;99.90;;;;;;10390389;28;20060;-61
2021/07/08 15:27:17;;;;;;;2.47;0.70;;;17.10;99.90;;;;;;10402626;28;20065;-60
2021/07/08 15:32:21;;;;;;;2.42;0.70;;;17.30;99.90;;;;;;10393564;28;20488;-59
2021/07/08 15:37:26;;;;;;;2.28;0.90;;;17.30;99.90;;;;;;10394810;28;20555;-60
2021/07/08 15:42:28;;;;;;;2.70;0.63;;;17.30;99.90;;;;;;10393008;28;20037;-60
2021/07/08 15:47:30;;;;;;;2.45;0.60;;;17.40;99.90;;;;;;10392257;28;20057;-60
2021/07/08 15:52:32;;;;;;;2.25;0.47;;;17.40;99.90;;;;;;10393891;28;20049;-59
2021/07/08 15:57:34;;;;;;;2.78;0.60;;;17.40;99.90;;;;;;10393542;28;20053;-60
2021/07/08 16:02:36;;;;;;;1.95;0.40;;;17.40;99.90;;;;;;10384685;28;20140;-60
2021/07/08 16:07:38;;;;;;;2.10;0.38;;;17.40;99.90;;;;;;10391299;28;20041;-61
2021/07/08 16:12:40;;;;;;;1.73;0.40;;;17.40;99.90;;;;;;10388849;28;20049;-60
2021/07/08 16:17:43;;;;;;;3.42;0.50;;;17.40;99.90;;;;;;10391562;28;20041;-60
2021/07/08 16:22:45;;;;;;;4.00;0.77;;;17.30;99.90;;;;;;10391081;28;20099;-60
2021/07/08 16:27:47;;;;;;;0.90;0.45;;;17.20;99.90;;;;;;10389744;28;20045;-61
2021/07/08 16:32:48;;;;;;;2.28;0.60;;;17.20;99.90;;;;;;10394105;28;20408;-61
2021/07/08 16:37:50;;;;;;;0.90;0.50;;;17.20;99.90;;;;;;10390541;28;20057;-60
2021/07/08 16:42:53;;;;;;;4.57;0.75;;;17.30;99.90;;;;;;10390436;28;20103;-61
2021/07/08 16:47:57;;;;;;;0.93;0.50;;;17.40;99.90;;;;;;10387464;28;20429;-60
2021/07/08 16:52:59;;;;;;;4.80;0.60;;;17.40;99.90;;;;;;10386687;28;20115;-60
2021/07/08 16:58:01;;;;;;;3.78;0.57;;;17.40;99.90;;;;;;10390608;28;20049;-61
2021/07/08 17:03:03;;;;;;;2.33;0.55;;;17.40;99.90;;;;;;10389942;28;20045;-61
2021/07/08 17:08:04;;;;;;;5.22;0.73;;;17.40;99.90;;;;;;10389599;28;20052;-60
2021/07/08 17:13:07;;;;;;;2.00;0.70;;;17.40;99.90;;;;;;10388932;28;20053;-60
2021/07/08 17:18:09;;;;;;;1.42;0.70;;;17.40;99.90;;;;;;10390489;28;20051;-60
2021/07/08 17:23:10;;;;;;;2.88;0.98;;;17.40;99.90;;;;;;10388353;28;20076;-61
2021/07/08 17:28:12;;;;;;;1.80;0.70;;;17.40;99.90;;;;;;10389310;28;20076;-60
2021/07/08 17:33:17;;;;;;;3.40;0.65;;;17.50;99.90;;;;;;10387529;28;20626;-60
2021/07/08 17:38:19;;;;;;;4.72;1.05;;;17.60;99.90;;;;;;10389028;28;20049;-60
2021/07/08 17:43:21;;;;;;;1.58;0.50;;;17.70;99.90;;;;;;10384449;28;20053;-59
2021/07/08 17:48:22;;;;;;;1.60;0.80;;;17.80;99.90;;;;;;10388222;28;20510;-59
2021/07/08 17:53:24;;;;;;;2.42;0.63;;;17.80;99.90;;;;;;10389439;28;20114;-60
2021/07/08 17:58:26;;;;;;;2.80;0.40;;;17.70;99.90;;;;;;10387534;28;21695;-60
2021/07/08 18:03:28;;;;;;;1.88;0.50;;;17.70;99.90;;;;;;10384671;28;20076;-59
2021/07/08 18:08:29;;;;;;;5.60;0.60;;;17.70;99.90;;;;;;10384547;28;20049;-60
2021/07/08 18:13:43;;;;;;;0.40;0.40;;;17.70;99.90;;;;;;10388087;28;20072;-60
2021/07/08 18:18:45;;;;;;;0.98;0.40;;;17.70;99.90;;;;;;10386287;28;20144;-60
2021/07/08 18:23:47;;;;;;;3.65;0.50;;;17.80;99.90;;;;;;10384940;28;20132;-60
2021/07/08 18:28:49;;;;;;;1.52;0.40;;;17.70;99.90;;;;;;10386854;28;20119;-60
2021/07/08 18:33:50;;;;;;;3.72;0.75;;;17.70;99.90;;;;;;10384448;28;20124;-59
2021/07/08 18:38:52;;;;;;;4.30;0.63;;;17.70;99.90;;;;;;10384094;28;20047;-59
2021/07/08 18:44:06;;;;;;;2.30;0.52;;;17.70;99.90;;;;;;10381904;28;20045;-60
2021/07/08 18:49:08;;;;;;;2.00;0.73;;;17.80;99.90;;;;;;10384502;28;20069;-60
2021/07/08 18:54:10;;;;;;;1.08;0.70;;;17.80;99.90;;;;;;10386427;28;20042;-61
2021/07/08 18:59:12;;;;;;;1.35;0.57;;;17.80;99.90;;;;;;10384105;28;20046;-60
2021/07/08 19:04:13;;;;;;;5.68;0.60;;;17.70;99.90;;;;;;10386408;28;20473;-60
2021/07/08 19:09:15;;;;;;;4.28;0.63;;;17.70;99.90;;;;;;10387888;28;20061;-60
2021/07/08 19:14:17;;;;;;;10.18;2.00;;;17.60;99.90;;;;;;10385367;28;20046;-60
2021/07/08 19:19:40;;;;;;;3.92;0.75;;;17.60;99.90;;;;;;10343401;28;20096;-61
2021/07/08 19:24:44;;;;;;;1.20;0.50;;;17.60;99.90;;;;;;10387798;28;20076;-60
2021/07/08 19:29:47;;;;;;;5.75;1.15;;;17.50;99.90;;;;;;10384255;28;20100;-60
2021/07/08 19:34:49;;;;;;;2.15;0.50;;;17.50;99.90;;;;;;10386997;28;20053;-60
2021/07/08 19:46:05;;;;;;;0.90;0.70;;;17.50;99.90;;;;;;10321471;28;20435;-63
2021/07/08 19:56:28;;;;;;;6.38;0.68;;;17.40;99.90;;;;;;10387776;28;20053;-63
2021/07/08 20:01:31;;;;;;;6.60;1.08;;;17.40;99.90;;;;;;10394320;28;20085;-63
2021/07/08 20:06:33;;;;;;;5.15;0.68;;;17.40;99.90;;;;;;10391637;28;20163;-63
2021/07/08 20:11:35;;;;;;;11.35;1.23;;;17.30;99.90;;;;;;10395512;28;20042;-63
2021/07/08 20:16:37;;;;;;;3.05;0.60;;;17.30;99.90;;;;;;10397133;28;20053;-63
2021/07/08 20:21:39;;;;;;;2.70;0.90;;;17.20;99.90;;;;;;10392482;28;20056;-63
2021/07/08 20:26:40;;;;;;;5.13;1.15;;;17.20;99.90;;;;;;10391212;28;20879;-63
2021/07/08 20:31:42;;;;;;;3.75;0.88;;;17.20;99.90;;;;;;10392695;28;20103;-63
2021/07/08 20:43:00;;;;;;;2.80;0.70;;;17.10;99.90;;;;;;10331672;28;20049;-64
2021/07/08 20:48:02;;;;;;;2.40;0.60;;;17.20;99.90;;;;;;10391368;28;20046;-63
2021/07/08 20:53:06;;;;;;;3.45;0.93;;;17.30;99.90;;;;;;10389752;28;20459;-63
2021/07/08 20:58:08;;;;;;;3.95;1.02;;;17.30;99.90;;;;;;10391711;28;20053;-63
2021/07/08 21:03:12;;;;;;;4.43;1.23;;;17.40;99.90;;;;;;10387325;28;20080;-64
2021/07/08 21:08:13;;;;;;;2.28;0.90;;;17.30;99.90;;;;;;10390607;28;20452;-64
2021/07/08 21:13:16;;;;;;;4.07;1.10;;;17.40;99.90;;;;;;10393924;28;20075;-67
2021/07/08 21:18:17;;;;;;;3.38;1.10;;;17.40;99.90;;;;;;10392953;28;20041;-65
2021/07/08 21:23:42;;;;;;;5.78;1.20;;;17.40;99.90;;;;;;10344437;28;20679;-63
2021/07/08 21:28:44;;;;;;;2.92;1.30;;;17.30;99.90;;;;;;10389786;28;20046;-63
2021/07/08 21:33:45;;;;;;;5.03;1.00;;;17.20;99.90;;;;;;10389828;28;20088;-63
2021/07/08 21:38:47;;;;;;;2.03;1.00;;;17.20;99.90;;;;;;10389168;28;20111;-64
2021/07/08 21:43:49;;;;;;;4.63;1.05;;;17.10;99.90;;;;;;10380478;28;20139;-63
2021/07/08 21:48:58;;;;;;;2.60;0.80;;;17.10;99.90;;;;;;10388011;28;20061;-63
2021/07/08 21:54:02;;;;;;;3.58;1.45;;;17.10;99.90;;;;;;10389091;28;20041;-63
2021/07/08 21:59:04;;;;;;;2.85;0.85;;;17.00;99.90;;;;;;10389845;28;20095;-63
2021/07/08 22:04:06;;;;;;;2.38;0.93;;;17.00;99.90;;;;;;10384786;28;20057;-63
2021/07/08 22:09:08;;;;;;;1.48;0.82;;;17.10;99.90;;;;;;10389556;28;20068;-63
2021/07/08 22:14:10;;;;;;;1.80;0.95;;;17.10;99.90;;;;;;10386632;28;20393;-63
2021/07/08 22:19:11;;;;;;;3.55;0.68;;;17.10;99.90;;;;;;10388702;28;20463;-63
2021/07/08 22:24:13;;;;;;;3.17;0.70;;;17.10;99.90;;;;;;10387914;28;20432;-64
2021/07/08 22:29:15;;;;;;;3.63;1.13;;;17.20;99.90;;;;;;10383597;28;20392;-64
2021/07/08 22:34:18;;;;;;;1.40;0.80;;;17.20;99.90;;;;;;10385844;28;20045;-64
2021/07/08 22:39:20;;;;;;;1.75;0.88;;;17.20;99.90;;;;;;10388228;28;20107;-63
2021/07/08 22:44:23;;;;;;;6.35;0.77;;;17.30;99.90;;;;;;10382062;28;20397;-64
2021/07/08 22:49:25;;;;;;;4.43;1.23;;;17.30;99.90;;;;;;10388153;28;20053;-64
2021/07/08 22:54:27;;;;;;;1.48;0.70;;;17.30;99.90;;;;;;10385200;28;20514;-64
2021/07/08 22:59:29;;;;;;;4.90;1.38;;;17.30;99.90;;;;;;10387915;28;20066;-64
2021/07/08 23:04:31;;;;;;;6.57;0.95;;;17.30;99.90;;;;;;10384020;28;20554;-63
2021/07/08 23:09:33;;;;;;;3.85;0.70;;;17.30;99.90;;;;;;10387060;28;20108;-63
2021/07/08 23:14:34;;;;;;;1.73;0.80;;;17.30;99.90;;;;;;10385860;28;20057;-63
2021/07/08 23:19:36;;;;;;;3.17;0.80;;;17.20;99.90;;;;;;10387501;28;20062;-64
2021/07/08 23:24:38;;;;;;;3.28;0.75;;;17.20;99.90;;;;;;10391795;28;20065;-64
2021/07/08 23:29:42;;;;;;;3.45;1.50;;;17.20;99.90;;;;;;10396100;28;20550;-63
2021/07/08 23:34:43;;;;;;;4.22;1.30;;;17.20;99.90;;;;;;10394775;28;20083;-64
2021/07/08 23:39:48;;;;;;;5.57;1.10;;;17.20;99.90;;;;;;10389480;28;20053;-64
